Time;durP1;ratioP1;P1;durP2;ratioP2;P2;SDS_P1;SDS_P2;PMS_P1;PMS_P2;Temp;Humidity;BMP_temperature;BMP_pressure;BME280_temperature;BME280_humidity;BME280_pressure;Samples;Min_cycle;Max_cycle;Signal;HPM_P1;HPM_P2
2021/10/01 00:00:29;;;;;;;;;3.67;2.67;;;;;12.53;54.51;101792.88;5075457;28;45489;-72
2021/10/01 00:02:55;;;;;;;;;4.00;2.67;;;;;12.54;54.12;101778.75;5074945;28;45306;-72
2021/10/01 00:05:21;;;;;;;;;3.00;2.00;;;;;12.56;54.14;101773.38;5078155;27;45467;-70
2021/10/01 00:07:47;;;;;;;;;3.00;1.67;;;;;12.62;54.11;101772.94;5074546;27;45969;-68
2021/10/01 00:10:12;;;;;;;;;2.33;1.00;;;;;12.64;54.43;101771.06;5075398;27;45682;-71
2021/10/01 00:12:37;;;;;;;;;3.00;2.67;;;;;12.73;54.51;101779.28;5075347;28;45523;-71
2021/10/01 00:15:05;;;;;;;;;4.00;2.00;;;;;12.75;54.32;101774.78;5074779;27;45367;-70
2021/10/01 00:17:30;;;;;;;;;1.00;1.00;;;;;12.83;54.33;101769.81;5073183;28;47188;-70
2021/10/01 00:19:56;;;;;;;;;2.33;2.33;;;;;12.94;55.70;101766.47;5076777;27;45221;-71
2021/10/01 00:22:21;;;;;;;;;1.00;1.00;;;;;13.15;55.01;101769.44;5072348;28;45339;-69
2021/10/01 00:24:47;;;;;;;;;1.00;1.00;;;;;13.18;54.61;101763.94;5071964;28;45389;-68
2021/10/01 00:27:13;;;;;;;;;3.33;1.00;;;;;13.18;55.50;101748.09;5073958;27;45419;-68
2021/10/01 00:29:40;;;;;;;;;2.00;2.00;;;;;13.47;56.17;101759.31;5074208;27;45599;-68
2021/10/01 00:32:06;;;;;;;;;0.33;0.33;;;;;13.51;53.99;101754.69;5073053;28;45509;-68
2021/10/01 00:34:32;;;;;;;;;1.33;1.00;;;;;13.49;53.37;101756.56;5073132;28;45385;-68
2021/10/01 00:36:57;;;;;;;;;3.00;1.00;;;;;13.47;54.72;101753.22;5075210;27;46013;-68
2021/10/01 00:39:22;;;;;;;;;1.00;1.00;;;;;13.49;53.83;101751.28;5073824;28;45627;-69
2021/10/01 00:41:48;;;;;;;;;2.00;2.00;;;;;13.45;54.22;101741.91;5075061;27;45320;-69
2021/10/01 00:44:14;;;;;;;;;3.00;1.67;;;;;13.43;54.73;101751.72;5074373;28;45372;-70
2021/10/01 00:46:40;;;;;;;;;1.00;1.00;;;;;13.43;53.88;101741.16;5073808;27;46451;-69
2021/10/01 00:49:05;;;;;;;;;2.33;2.00;;;;;13.36;54.26;101741.59;5075241;28;45537;-70
2021/10/01 00:51:34;;;;;;;;;3.00;2.00;;;;;13.35;54.63;101734.59;5075668;28;45426;-68
2021/10/01 00:54:00;;;;;;;;;1.00;1.00;;;;;13.37;54.92;101737.16;5074246;28;45497;-66
2021/10/01 00:56:25;;;;;;;;;1.00;1.00;;;;;13.40;54.44;101736.97;5074100;27;45428;-67
2021/10/01 00:58:51;;;;;;;;;4.00;1.00;;;;;13.48;55.63;101739.03;5073185;28;45427;-66
2021/10/01 01:01:17;;;;;;;;;0.00;0.00;;;;;13.59;54.19;101730.38;5071614;28;45360;-68
2021/10/01 01:03:50;;;;;;;;;1.67;1.67;;;;;13.52;53.85;101735.25;5074169;28;45506;-67
2021/10/01 01:06:28;;;;;;;;;1.00;1.00;;;;;13.38;54.09;101748.59;5073238;28;46124;-67
2021/10/01 01:09:08;;;;;;;;;1.00;1.00;;;;;13.21;54.52;101737.38;5073344;28;45394;-66
2021/10/01 01:11:55;;;;;;;;;1.33;1.00;;;;;13.13;55.35;101740.53;5072417;28;45468;-71
2021/10/01 01:14:31;;;;;;;;;1.00;1.00;;;;;13.09;54.78;101732.91;5072763;28;45415;-72
2021/10/01 01:17:00;;;;;;;;;3.00;2.00;;;;;13.07;54.92;101734.84;5077851;28;45461;-74
2021/10/01 01:19:55;;;;;;;;;3.67;1.67;;;;;13.04;55.11;101728.81;5079619;28;45641;-77
2021/10/01 01:22:47;;;;;;;;;4.33;2.00;;;;;13.03;55.05;101723.66;5087899;27;45295;-74
2021/10/01 01:25:40;;;;;;;;;2.00;2.00;;;;;13.07;55.31;101725.13;5076642;27;45320;-70
2021/10/01 01:28:11;;;;;;;;;1.33;0.00;;;;;13.06;54.86;101723.44;5080292;28;45503;-73
2021/10/01 01:30:44;;;;;;;;;1.00;1.00;;;;;13.07;55.19;101713.75;5074171;28;45427;-74
2021/10/01 01:33:16;;;;;;;;;1.00;1.00;;;;;13.08;55.02;101710.13;5073175;28;45545;-71
2021/10/01 01:35:44;;;;;;;;;3.00;2.00;;;;;13.08;55.60;101704.84;5068500;28;45417;-73
2021/10/01 01:38:17;;;;;;;;;1.00;1.00;;;;;13.10;55.06;101701.16;5072550;28;45539;-73
2021/10/01 01:40:49;;;;;;;;;1.33;1.00;;;;;13.09;54.93;101701.25;5072207;28;45386;-72
2021/10/01 01:43:15;;;;;;;;;1.67;1.00;;;;;13.06;56.18;101691.78;5073183;28;45323;-73
2021/10/01 01:45:41;;;;;;;;;3.00;1.33;;;;;13.03;55.13;101692.81;5075244;28;45545;-72
2021/10/01 01:48:08;;;;;;;;;2.67;1.00;;;;;13.02;55.49;101693.78;5071998;28;46878;-70
2021/10/01 01:50:35;;;;;;;;;3.00;2.00;;;;;12.99;54.79;101690.53;5073177;28;46914;-70
2021/10/01 01:53:04;;;;;;;;;2.00;1.00;;;;;12.93;55.05;101683.88;5076257;28;45690;-70
2021/10/01 01:55:30;;;;;;;;;2.00;2.00;;;;;12.89;55.24;101687.66;5073145;27;45384;-69
2021/10/01 01:57:58;;;;;;;;;1.67;1.00;;;;;12.84;55.35;101687.13;5070690;28;47169;-74
2021/10/01 02:00:25;;;;;;;;;1.00;1.00;;;;;12.82;55.24;101673.22;5073229;28;45865;-74
2021/10/01 02:02:53;;;;;;;;;1.00;1.00;;;;;12.75;55.24;101669.31;5073130;28;45641;-72
2021/10/01 02:05:19;;;;;;;;;1.00;1.00;;;;;12.67;55.38;101669.84;5071387;28;45513;-73
2021/10/01 02:07:46;;;;;;;;;1.67;1.67;;;;;12.66;55.85;101668.16;5069869;28;48351;-74
2021/10/01 02:10:13;;;;;;;;;1.33;1.33;;;;;12.63;56.03;101652.56;5070328;28;45395;-73
2021/10/01 02:12:42;;;;;;;;;1.00;1.00;;;;;12.58;56.15;101655.47;5074805;27;45466;-73
2021/10/01 02:15:10;;;;;;;;;2.00;2.00;;;;;12.54;56.11;101654.00;5070863;28;45395;-73
2021/10/01 02:17:38;;;;;;;;;1.00;1.00;;;;;12.53;56.76;101662.84;5071926;28;47125;-74
2021/10/01 02:20:06;;;;;;;;;1.33;1.33;;;;;12.52;56.46;101658.56;5072701;28;45452;-74
2021/10/01 02:22:33;;;;;;;;;2.00;1.67;;;;;12.49;56.34;101650.84;5072908;28;45508;-73
2021/10/01 02:24:59;;;;;;;;;1.00;1.00;;;;;12.46;57.11;101644.00;5074617;27;45448;-73
2021/10/01 02:27:43;;;;;;;;;3.00;2.00;;;;;12.47;57.08;101647.50;5073270;28;46209;-73
2021/10/01 02:30:13;;;;;;;;;1.00;0.00;;;;;12.48;56.71;101638.59;5072969;27;45453;-74
2021/10/01 02:32:57;;;;;;;;;2.33;1.00;;;;;12.44;57.12;101635.38;5071127;27;45509;-73
2021/10/01 02:35:22;;;;;;;;;1.00;1.00;;;;;12.42;56.77;101633.78;5073595;28;45686;-73
2021/10/01 02:37:48;;;;;;;;;1.67;1.67;;;;;12.36;57.18;101622.72;5072527;27;45315;-73
2021/10/01 02:40:14;;;;;;;;;1.67;1.67;;;;;12.33;56.91;101622.06;5072828;27;45284;-73
2021/10/01 02:42:39;;;;;;;;;4.00;1.00;;;;;12.35;57.53;101623.66;5073478;28;45358;-74
2021/10/01 02:45:06;;;;;;;;;1.00;1.00;;;;;12.35;58.08;101626.28;5071781;27;45376;-73
2021/10/01 02:47:33;;;;;;;;;1.00;1.00;;;;;12.42;57.77;101621.44;5074264;28;46153;-74
2021/10/01 02:50:01;;;;;;;;;1.00;1.00;;;;;12.46;57.21;101616.81;5076245;27;45481;-74
2021/10/01 02:52:52;;;;;;;;;2.67;1.00;;;;;12.45;57.48;101612.47;5076010;28;45442;-74
2021/10/01 02:55:43;;;;;;;;;2.00;1.00;;;;;12.47;57.57;101610.59;5073986;28;45650;-74
2021/10/01 02:58:12;;;;;;;;;5.00;1.67;;;;;12.49;58.36;101611.31;5067863;28;46260;-73
2021/10/01 03:00:38;;;;;;;;;2.00;2.00;;;;;12.47;57.35;101611.44;5077355;28;45466;-72
2021/10/01 03:03:09;;;;;;;;;5.00;1.67;;;;;12.46;57.64;101603.63;5075879;28;45704;-73
2021/10/01 03:05:40;;;;;;;;;0.00;0.00;;;;;12.49;57.89;101599.00;5075843;28;45609;-73
2021/10/01 03:08:07;;;;;;;;;3.67;1.67;;;;;12.53;58.06;101596.97;5075255;27;45380;-73
2021/10/01 03:10:33;;;;;;;;;1.67;1.67;;;;;12.57;57.46;101600.25;5076188;28;45532;-73
2021/10/01 03:13:00;;;;;;;;;2.00;1.00;;;;;12.55;58.15;101590.66;5076889;27;45536;-73
2021/10/01 03:15:27;;;;;;;;;2.00;1.00;;;;;12.60;57.53;101598.25;5076532;28;45470;-73
2021/10/01 03:17:53;;;;;;;;;1.00;1.00;;;;;12.58;57.08;101591.41;5075001;28;47503;-74
2021/10/01 03:20:19;;;;;;;;;0.00;0.00;;;;;12.50;58.09;101591.94;5075294;27;45649;-73
2021/10/01 03:22:45;;;;;;;;;1.00;1.00;;;;;12.50;58.53;101584.84;5075657;27;45420;-73
2021/10/01 03:25:12;;;;;;;;;4.00;1.00;;;;;12.50;57.63;101586.66;5075422;27;45410;-74
2021/10/01 03:27:38;;;;;;;;;3.00;1.00;;;;;12.47;57.48;101579.81;5077697;27;47263;-73
2021/10/01 03:30:07;;;;;;;;;1.00;1.00;;;;;12.37;57.29;101576.94;5074411;27;45665;-73
2021/10/01 03:32:34;;;;;;;;;3.00;1.00;;;;;12.29;57.76;101581.91;5075342;28;45330;-72
2021/10/01 03:35:01;;;;;;;;;2.00;1.00;;;;;12.23;58.45;101577.03;5075570;28;45447;-73
2021/10/01 03:37:28;;;;;;;;;2.00;1.00;;;;;12.18;58.42;101572.09;5075431;28;46181;-74
2021/10/01 03:39:59;;;;;;;;;2.33;1.33;;;;;12.14;58.37;101572.41;5077612;27;45485;-73
2021/10/01 03:42:25;;;;;;;;;1.67;1.00;;;;;12.08;58.65;101572.81;5074864;28;45518;-73
2021/10/01 03:44:51;;;;;;;;;0.67;0.67;;;;;12.01;59.43;101573.25;5079409;27;45423;-74
2021/10/01 03:47:16;;;;;;;;;1.67;1.33;;;;;12.03;58.30;101568.69;5078987;27;47324;-75
2021/10/01 03:49:42;;;;;;;;;1.00;1.00;;;;;12.00;58.89;101571.53;5074373;28;45502;-73
2021/10/01 03:52:09;;;;;;;;;2.00;0.33;;;;;11.98;59.08;101564.69;5075284;28;45446;-73
2021/10/01 03:54:36;;;;;;;;;4.33;3.00;;;;;11.94;58.96;101558.75;5075282;28;45521;-74
2021/10/01 03:57:02;;;;;;;;;6.00;2.00;;;;;11.90;59.06;101562.53;5074237;28;46924;-74
2021/10/01 03:59:28;;;;;;;;;2.00;2.00;;;;;11.83;59.20;101558.63;5073463;28;45350;-73
2021/10/01 04:01:53;;;;;;;;;4.00;2.00;;;;;11.80;58.97;101554.41;5087832;27;45423;-74
2021/10/01 04:04:18;;;;;;;;;1.67;1.00;;;;;11.76;59.37;101552.09;5075702;28;45620;-75
2021/10/01 04:06:44;;;;;;;;;4.00;2.00;;;;;11.69;59.74;101554.28;5077345;28;46242;-74
2021/10/01 04:09:09;;;;;;;;;1.00;1.00;;;;;11.66;60.22;101551.84;5075883;28;45521;-74
2021/10/01 04:11:37;;;;;;;;;4.00;2.00;;;;;11.66;59.44;101547.44;5076470;27;45508;-75
2021/10/01 04:14:03;;;;;;;;;5.00;3.00;;;;;11.66;60.05;101539.53;5077110;27;45489;-74
2021/10/01 04:16:28;;;;;;;;;4.00;2.00;;;;;11.62;59.50;101551.19;5076255;27;47077;-76
2021/10/01 04:18:54;;;;;;;;;1.33;1.33;;;;;11.58;60.03;101539.19;5076770;28;45379;-73
2021/10/01 04:21:19;;;;;;;;;1.00;1.00;;;;;11.59;60.23;101540.88;5076615;28;45686;-73
2021/10/01 04:23:44;;;;;;;;;0.67;0.67;;;;;11.65;60.92;101535.22;5077332;28;45470;-73
2021/10/01 04:26:10;;;;;;;;;2.00;2.00;;;;;11.75;60.49;101539.88;5077432;28;46885;-74
2021/10/01 04:28:35;;;;;;;;;2.00;2.00;;;;;11.73;59.77;101532.91;5076446;28;45314;-74
2021/10/01 04:31:01;;;;;;;;;1.00;1.00;;;;;11.68;60.50;101529.72;5078890;27;45224;-73
2021/10/01 04:33:28;;;;;;;;;2.67;1.33;;;;;11.66;60.54;101531.63;5075859;28;45488;-73
2021/10/01 04:35:54;;;;;;;;;4.33;1.67;;;;;11.71;61.11;101526.06;5076858;27;45394;-73
2021/10/01 04:38:21;;;;;;;;;2.00;1.00;;;;;11.73;60.51;101524.19;5075239;28;45331;-73
2021/10/01 04:40:47;;;;;;;;;2.00;1.00;;;;;11.70;60.77;101516.47;5074950;27;45324;-73
2021/10/01 04:43:13;;;;;;;;;4.67;2.00;;;;;11.65;61.24;101516.78;5075565;27;45283;-74
2021/10/01 04:45:38;;;;;;;;;3.33;1.67;;;;;11.64;60.70;101522.16;5078747;28;45061;-73
2021/10/01 04:48:07;;;;;;;;;1.00;1.00;;;;;11.59;60.98;101519.81;5077101;27;45529;-73
2021/10/01 04:50:33;;;;;;;;;3.00;2.67;;;;;11.57;60.43;101513.81;5077913;27;45590;-74
2021/10/01 04:52:58;;;;;;;;;5.33;3.67;;;;;11.58;61.22;101517.28;5078143;28;45365;-72
2021/10/01 04:55:24;;;;;;;;;4.00;3.00;;;;;11.54;60.76;101521.91;5077087;27;46253;-74
2021/10/01 04:57:50;;;;;;;;;2.67;2.00;;;;;11.54;61.09;101521.91;5072768;28;45493;-73
2021/10/01 05:00:16;;;;;;;;;2.00;2.00;;;;;11.53;60.97;101520.22;5072564;27;45441;-75
2021/10/01 05:02:41;;;;;;;;;3.33;2.00;;;;;11.51;61.50;101522.13;5073957;27;45554;-74
2021/10/01 05:05:07;;;;;;;;;3.67;2.67;;;;;11.54;61.33;101521.91;5074186;28;45428;-73
2021/10/01 05:07:32;;;;;;;;;1.67;1.67;;;;;11.54;61.40;101519.28;5072056;28;45409;-73
2021/10/01 05:09:58;;;;;;;;;1.00;1.00;;;;;11.56;61.84;101525.28;5074817;27;45356;-74
2021/10/01 05:12:23;;;;;;;;;2.00;2.00;;;;;11.58;61.30;101520.75;5072940;28;45505;-74
2021/10/01 05:14:49;;;;;;;;;1.67;1.00;;;;;11.55;60.86;101521.81;5073599;28;45333;-74
2021/10/01 05:17:14;;;;;;;;;5.00;2.00;;;;;11.53;61.39;101528.09;5073622;28;45317;-74
2021/10/01 05:19:40;;;;;;;;;3.33;2.33;;;;;11.56;62.08;101525.28;5086208;27;45796;-74
2021/10/01 05:22:05;;;;;;;;;4.00;4.00;;;;;11.62;61.12;101524.88;5074842;27;45206;-74
2021/10/01 05:24:31;;;;;;;;;2.00;2.00;;;;;11.58;61.21;101518.13;5075285;28;47102;-73
2021/10/01 05:26:57;;;;;;;;;3.33;2.67;;;;;11.53;61.65;101522.84;5071295;27;45324;-73
2021/10/01 05:29:24;;;;;;;;;4.00;4.00;;;;;11.47;61.67;101516.22;5073353;27;45368;-72
2021/10/01 05:31:49;;;;;;;;;2.67;2.67;;;;;11.45;61.45;101518.09;5074044;27;45423;-74
2021/10/01 05:34:16;;;;;;;;;3.67;2.00;;;;;11.47;62.46;101520.63;5073317;27;46361;-74
2021/10/01 05:36:42;;;;;;;;;6.00;3.00;;;;;11.48;62.21;101517.91;5075761;28;45406;-73
2021/10/01 05:39:08;;;;;;;;;2.67;2.67;;;;;11.45;61.55;101517.25;5073597;28;45485;-73
2021/10/01 05:41:33;;;;;;;;;3.00;3.00;;;;;11.46;61.65;101518.94;5072615;28;49357;-73
2021/10/01 05:43:59;;;;;;;;;4.33;2.33;;;;;11.44;62.14;101512.94;5073868;28;45573;-73
2021/10/01 05:46:24;;;;;;;;;2.00;2.00;;;;;11.48;62.60;101519.66;5071925;28;45354;-73
2021/10/01 05:48:56;;;;;;;;;4.33;1.67;;;;;11.50;62.46;101516.00;5071081;28;45467;-74
2021/10/01 05:51:22;;;;;;;;;2.00;1.67;;;;;11.49;62.40;101502.94;5090009;27;45509;-73
2021/10/01 05:54:00;;;;;;;;;2.00;2.00;;;;;11.49;62.12;101513.47;5073378;27;47090;-72
2021/10/01 05:56:25;;;;;;;;;3.67;3.00;;;;;11.44;61.83;101505.03;5073043;27;45676;-73
2021/10/01 05:58:51;;;;;;;;;3.00;3.00;;;;;11.37;61.60;101508.06;5073366;28;45581;-73
2021/10/01 06:01:16;;;;;;;;;1.33;1.33;;;;;11.32;61.79;101504.06;5073513;27;45352;-73
2021/10/01 06:03:41;;;;;;;;;2.67;2.00;;;;;11.28;62.41;101508.66;5074320;28;46827;-74
2021/10/01 06:06:07;;;;;;;;;4.00;3.00;;;;;11.25;62.52;101506.25;5073323;28;45452;-73
2021/10/01 06:08:32;;;;;;;;;2.00;2.00;;;;;11.28;63.02;101500.78;5073487;28;45845;-74
2021/10/01 06:10:58;;;;;;;;;4.67;2.00;;;;;11.29;62.98;101493.75;5073430;27;45419;-73
2021/10/01 06:13:23;;;;;;;;;3.33;3.33;;;;;11.29;62.63;101497.22;5073355;28;46186;-73
2021/10/01 06:15:49;;;;;;;;;3.00;3.00;;;;;11.32;62.74;101496.16;5075658;28;45507;-74
2021/10/01 06:18:14;;;;;;;;;5.00;3.00;;;;;11.31;62.94;101490.06;5073212;27;45528;-74
2021/10/01 06:20:39;;;;;;;;;1.67;1.67;;;;;11.34;62.27;101489.03;5070010;27;45496;-73
2021/10/01 06:23:05;;;;;;;;;4.67;3.33;;;;;11.34;62.87;101495.13;5066258;28;46438;-73
2021/10/01 06:25:30;;;;;;;;;2.00;2.00;;;;;11.37;62.80;101502.81;5074929;27;45293;-73
2021/10/01 06:27:57;;;;;;;;;2.00;2.00;;;;;11.44;63.08;101494.50;5074162;28;45316;-72
2021/10/01 06:30:22;;;;;;;;;2.00;2.00;;;;;11.59;62.60;101508.47;5094283;27;45607;-73
2021/10/01 06:32:48;;;;;;;;;4.00;4.00;;;;;11.64;62.71;101501.94;5070873;28;46102;-75
2021/10/01 06:35:13;;;;;;;;;2.00;2.00;;;;;11.72;62.36;101510.16;5076130;28;46594;-74
2021/10/01 06:37:39;;;;;;;;;3.00;3.00;;;;;11.73;62.01;101501.31;5078974;27;45266;-74
2021/10/01 06:40:06;;;;;;;;;3.33;2.00;;;;;11.79;62.00;101502.69;5081869;27;45399;-73
2021/10/01 06:42:33;;;;;;;;;1.00;1.00;;;;;11.89;61.95;101500.28;5082135;28;46367;-73
2021/10/01 06:45:02;;;;;;;;;4.33;3.00;;;;;11.96;62.33;101496.34;5080291;27;45253;-73
2021/10/01 06:47:48;;;;;;;;;3.00;3.00;;;;;12.08;62.05;101491.16;5077143;28;45351;-74
2021/10/01 08:20:16;;;;;;;;;5.00;2.67;;;;;14.66;57.72;101451.97;4971632;28;45904;-73
2021/10/01 08:22:41;;;;;;;;;4.33;2.00;;;;;14.76;57.57;101459.97;4961184;28;45409;-75
2021/10/01 08:25:07;;;;;;;;;2.00;2.00;;;;;14.76;57.28;101454.69;4975160;28;45440;-74
2021/10/01 08:27:35;;;;;;;;;4.67;2.00;;;;;14.76;57.39;101451.22;4975240;28;45342;-74
2021/10/01 08:30:00;;;;;;;;;4.33;2.00;;;;;14.76;57.03;101446.75;4966086;28;46193;-74
2021/10/01 08:32:26;;;;;;;;;1.00;1.00;;;;;14.83;56.96;101447.13;4964927;28;45470;-74
2021/10/01 08:34:51;;;;;;;;;6.00;2.33;;;;;14.91;57.07;101449.16;4973055;28;45486;-73
2021/10/01 08:37:17;;;;;;;;;2.00;2.00;;;;;14.93;57.17;101452.50;4962656;28;45335;-73
2021/10/01 08:39:42;;;;;;;;;2.00;2.00;;;;;14.92;56.80;101449.03;4981240;28;46329;-74
2021/10/01 08:42:08;;;;;;;;;3.00;2.67;;;;;15.00;57.13;101443.94;4969465;28;45571;-74
2021/10/01 08:44:34;;;;;;;;;3.00;3.00;;;;;15.12;56.88;101438.59;4962582;28;45627;-75
2021/10/01 08:47:02;;;;;;;;;4.67;2.00;;;;;15.20;56.36;101438.81;4964085;28;45574;-75
2021/10/01 08:49:28;;;;;;;;;3.33;2.33;;;;;15.24;56.36;101434.94;4973784;28;46106;-76
2021/10/01 08:51:54;;;;;;;;;1.00;1.00;;;;;15.24;55.99;101429.63;4966475;28;45381;-76
2021/10/01 08:54:20;;;;;;;;;3.67;2.67;;;;;15.29;56.25;101438.03;4988916;28;45381;-76
2021/10/01 08:56:46;;;;;;;;;3.33;2.00;;;;;15.32;56.29;101436.94;5022981;28;45236;-74
2021/10/01 08:59:11;;;;;;;;;2.00;2.00;;;;;15.43;56.24;101428.13;5081823;27;45745;-75
2021/10/01 09:01:37;;;;;;;;;1.67;1.67;;;;;15.54;55.62;101430.69;5075114;28;45464;-74
2021/10/01 09:04:04;;;;;;;;;6.00;6.00;;;;;15.54;55.97;101412.16;5075563;27;45245;-77
2021/10/01 09:06:30;;;;;;;;;3.00;2.00;;;;;15.64;55.52;101428.94;5074886;28;45617;-75
2021/10/01 09:09:04;;;;;;;;;1.67;1.67;;;;;15.70;55.38;101424.09;5073460;28;45462;-75
2021/10/01 09:11:34;;;;;;;;;2.67;1.00;;;;;15.70;55.15;101413.50;5073255;27;45386;-74
2021/10/01 09:14:10;;;;;;;;;3.33;3.33;;;;;15.76;55.67;101407.69;5073778;28;45363;-73
2021/10/01 09:16:38;;;;;;;;;3.67;2.00;;;;;15.78;55.31;101408.41;5074257;28;45434;-74
2021/10/01 09:19:04;;;;;;;;;1.00;1.00;;;;;15.76;55.36;101402.38;5073979;27;46378;-75
2021/10/01 09:21:40;;;;;;;;;4.00;3.00;;;;;15.75;55.07;101401.56;5074117;28;45417;-76
2021/10/01 09:24:09;;;;;;;;;2.67;2.67;;;;;15.78;55.52;101401.28;5074227;27;45471;-75
2021/10/01 09:26:35;;;;;;;;;4.00;3.00;;;;;15.80;55.49;101398.50;5074254;28;45466;-75
2021/10/01 09:29:06;;;;;;;;;4.33;3.00;;;;;15.87;55.92;101404.13;5076280;28;46218;-75
2021/10/01 09:31:42;;;;;;;;;1.33;1.33;;;;;15.82;55.55;101407.22;5079949;27;45493;-75
2021/10/01 09:34:30;;;;;;;;;2.33;1.00;;;;;15.82;56.17;101399.25;5078400;27;45316;-75
2021/10/01 09:37:06;;;;;;;;;2.00;2.00;;;;;15.79;56.28;101399.50;5074640;28;45510;-75
2021/10/01 09:39:38;;;;;;;;;2.67;1.00;;;;;15.88;55.76;101388.13;5106221;27;46371;-76
2021/10/01 09:42:30;;;;;;;;;2.00;2.00;;;;;15.96;56.18;101398.91;5076484;27;45378;-76
2021/10/01 09:45:01;;;;;;;;;4.33;4.00;;;;;16.03;56.19;101398.38;5074860;28;45486;-76
2021/10/01 09:47:36;;;;;;;;;3.33;1.33;;;;;16.08;55.96;101396.16;5078561;28;45470;-75
2021/10/01 09:50:09;;;;;;;;;4.33;3.00;;;;;16.12;55.06;101403.69;5078555;28;45456;-75
2021/10/01 09:52:52;;;;;;;;;10.33;10.33;;;;;16.14;55.53;101387.69;5076853;28;45370;-74
2021/10/01 09:55:27;;;;;;;;;4.33;2.00;;;;;16.21;55.18;101382.69;5074045;27;45435;-75
2021/10/01 09:58:08;;;;;;;;;4.33;4.33;;;;;16.28;55.94;101383.81;5071579;28;45290;-75
2021/10/01 10:00:44;;;;;;;;;4.33;2.00;;;;;16.28;54.83;101387.31;5075149;28;45381;-75
2021/10/01 10:03:28;;;;;;;;;1.67;1.67;;;;;16.30;55.53;101385.34;5073545;27;46635;-75
2021/10/01 10:05:57;;;;;;;;;3.33;3.00;;;;;16.23;54.84;101386.88;5072432;28;45490;-74
2021/10/01 10:08:35;;;;;;;;;2.00;2.00;;;;;16.26;55.12;101391.91;5073607;28;45300;-75
2021/10/01 10:11:03;;;;;;;;;1.67;1.67;;;;;16.28;55.71;101386.44;5067252;28;46213;-76
2021/10/01 10:13:48;;;;;;;;;3.33;1.00;;;;;16.27;56.22;101384.78;5073272;27;45291;-73
2021/10/01 10:16:17;;;;;;;;;2.00;2.00;;;;;16.21;56.35;101396.75;5071933;28;45329;-73
2021/10/01 10:18:44;;;;;;;;;2.00;2.00;;;;;16.25;56.39;101386.75;5087105;27;45519;-75
2021/10/01 10:21:10;;;;;;;;;5.00;2.00;;;;;16.30;56.09;101397.78;5075992;27;47182;-74
2021/10/01 10:23:35;;;;;;;;;11.33;10.33;;;;;16.31;55.93;101392.31;5070856;28;46072;-75
2021/10/01 10:26:00;;;;;;;;;8.33;6.33;;;;;16.30;56.66;101390.66;5074286;27;45473;-74
2021/10/01 10:28:27;;;;;;;;;6.00;5.67;;;;;16.36;55.84;101391.06;5071137;28;45338;-76
2021/10/01 10:30:55;;;;;;;;;2.67;1.67;;;;;16.40;56.48;101385.38;5075742;27;45415;-75
2021/10/01 10:33:57;;;;;;;;;5.00;4.00;;;;;16.43;55.30;101376.31;5078379;28;45431;-75
2021/10/01 10:36:34;;;;;;;;;8.67;6.33;;;;;16.45;55.59;101377.00;5056802;28;45412;-77
2021/10/01 10:39:32;;;;;;;;;27.00;25.00;;;;;16.53;55.83;101384.28;5030728;28;45517;-75
2021/10/01 10:42:00;;;;;;;;;4.67;4.67;;;;;16.57;55.61;101383.06;5040986;28;46092;-74
2021/10/01 10:44:46;;;;;;;;;10.00;7.67;;;;;16.61;55.27;101377.31;5050123;28;45695;-75
2021/10/01 10:47:32;;;;;;;;;3.67;3.67;;;;;16.66;55.41;101380.41;5051891;28;45563;-75
2021/10/01 10:50:25;;;;;;;;;3.00;3.00;;;;;16.71;55.87;101376.47;5051625;28;45600;-76
2021/10/01 10:53:05;;;;;;;;;2.33;2.33;;;;;16.80;55.34;101373.00;5049837;28;46438;-76
2021/10/01 10:55:33;;;;;;;;;2.67;1.67;;;;;16.89;56.05;101368.69;5052091;28;45400;-75
2021/10/01 10:57:59;;;;;;;;;0.00;0.00;;;;;16.96;54.36;101362.69;5052061;28;45270;-75
2021/10/01 11:00:41;;;;;;;;;3.33;3.00;;;;;17.03;54.81;101356.84;5050843;28;45269;-74
2021/10/01 11:03:27;;;;;;;;;4.67;3.00;;;;;17.04;54.48;101350.56;5051660;28;46117;-75
2021/10/01 11:06:08;;;;;;;;;3.67;2.33;;;;;17.05;54.62;101347.75;5049966;28;45551;-75
2021/10/01 11:08:34;;;;;;;;;2.00;1.67;;;;;17.03;54.43;101338.25;5051429;28;46208;-75
2021/10/01 11:11:00;;;;;;;;;2.00;1.67;;;;;16.99;54.35;101338.56;5062987;28;45367;-76
2021/10/01 11:13:31;;;;;;;;;3.00;2.67;;;;;17.02;54.02;101352.50;5076266;27;45993;-76
2021/10/01 11:16:15;;;;;;;;;1.67;1.67;;;;;17.03;54.15;101343.56;5074295;28;45284;-74
2021/10/01 11:18:44;;;;;;;;;2.33;2.33;;;;;17.04;55.07;101340.78;5091981;27;45396;-75
2021/10/01 11:21:24;;;;;;;;;2.00;1.33;;;;;17.03;55.62;101333.78;5077311;27;45375;-75
2021/10/01 11:24:06;;;;;;;;;4.33;1.67;;;;;17.02;54.84;101337.44;5076101;28;45470;-76
2021/10/01 11:26:33;;;;;;;;;3.00;3.00;;;;;17.03;54.62;101332.94;5080175;27;45391;-75
2021/10/01 11:29:00;;;;;;;;;0.00;0.00;;;;;17.02;55.53;101325.97;5077204;27;45402;-74
2021/10/01 11:31:41;;;;;;;;;1.33;1.33;;;;;17.03;55.65;101311.72;5080908;28;45182;-75
2021/10/01 11:34:07;;;;;;;;;1.67;0.67;;;;;17.07;54.44;101315.75;5081182;27;47760;-75
2021/10/01 11:36:37;;;;;;;;;3.00;1.00;;;;;17.13;54.95;101307.22;5077594;28;45316;-75
2021/10/01 11:39:07;;;;;;;;;0.67;0.67;;;;;17.18;55.67;101304.13;5075996;27;45470;-77
2021/10/01 11:41:38;;;;;;;;;2.00;2.00;;;;;17.17;54.44;101292.69;5073166;28;45482;-77
2021/10/01 11:44:03;;;;;;;;;1.67;1.67;;;;;17.22;54.92;101295.75;5090077;27;46458;-76
2021/10/01 11:46:58;;;;;;;;;2.00;0.33;;;;;17.27;55.71;101303.31;5079649;27;45719;-73
2021/10/01 11:49:27;;;;;;;;;0.67;0.67;;;;;17.29;55.99;101298.66;5069412;28;45415;-74
2021/10/01 11:52:04;;;;;;;;;2.00;0.67;;;;;17.31;56.02;101300.19;5077007;28;45422;-72
2021/10/01 11:54:31;;;;;;;;;1.00;1.00;;;;;17.32;55.93;101279.81;5075731;28;46187;-71
2021/10/01 11:57:05;;;;;;;;;1.00;1.00;;;;;17.34;55.48;101271.69;5074266;27;45509;-76
2021/10/01 12:00:00;;;;;;;;;0.33;0.00;;;;;17.43;55.49;101282.25;5074770;27;45378;-74
2021/10/01 12:02:39;;;;;;;;;1.00;1.00;;;;;17.47;55.51;101272.19;5074209;28;45528;-74
2021/10/01 12:05:17;;;;;;;;;4.67;1.67;;;;;17.51;55.53;101262.94;5074459;28;46163;-75
2021/10/01 12:07:51;;;;;;;;;1.00;0.00;;;;;17.53;55.46;101261.00;5073555;28;45420;-75
2021/10/01 12:10:18;;;;;;;;;0.00;0.00;;;;;17.53;55.10;101261.00;5074747;27;45518;-71
2021/10/01 12:13:00;;;;;;;;;1.00;1.00;;;;;17.55;55.62;101264.31;5076456;28;45786;-73
2021/10/01 12:15:38;;;;;;;;;0.67;0.00;;;;;17.56;55.74;101260.69;5076300;28;48399;-76
2021/10/01 12:18:25;;;;;;;;;1.00;1.00;;;;;17.59;55.25;101254.25;5074909;28;45388;-75
2021/10/01 12:20:52;;;;;;;;;1.00;0.00;;;;;17.68;55.62;101273.78;5071598;28;45640;-75
2021/10/01 12:23:18;;;;;;;;;1.67;0.33;;;;;17.74;55.04;101267.88;5068371;28;45583;-77
2021/10/01 12:25:44;;;;;;;;;0.67;0.00;;;;;17.78;54.60;101264.78;5075617;27;45482;-77
2021/10/01 12:28:09;;;;;;;;;0.00;0.00;;;;;17.83;54.88;101256.38;5077035;27;45437;-76
2021/10/01 12:30:34;;;;;;;;;0.00;0.00;;;;;17.89;55.16;101269.06;5077243;28;45735;-78
2021/10/01 12:33:00;;;;;;;;;0.67;0.00;;;;;17.90;55.38;101270.72;5075097;28;45556;-77
2021/10/01 12:35:25;;;;;;;;;2.00;0.67;;;;;17.87;55.45;101255.09;5074614;28;45329;-74
2021/10/01 12:37:51;;;;;;;;;3.00;0.00;;;;;17.93;54.74;101251.00;5076051;28;45445;-73
2021/10/01 12:40:16;;;;;;;;;0.00;0.00;;;;;17.95;54.75;101255.19;5075825;27;45599;-75
2021/10/01 12:42:42;;;;;;;;;2.00;1.00;;;;;17.96;54.46;101248.91;5075862;28;45477;-71
2021/10/01 12:45:12;;;;;;;;;1.00;1.00;;;;;17.98;54.87;101248.75;5074005;28;45633;-69
2021/10/01 12:47:43;;;;;;;;;1.00;1.00;;;;;18.00;54.76;101245.97;5073277;28;45399;-78
2021/10/01 12:50:09;;;;;;;;;1.00;1.00;;;;;18.01;54.95;101243.16;5074148;28;45403;-80
2021/10/01 12:52:38;;;;;;;;;0.00;0.00;;;;;18.00;55.08;101240.63;5075005;27;45274;-77
2021/10/01 12:55:09;;;;;;;;;1.33;1.00;;;;;18.01;54.84;101235.16;5075083;27;46206;-76
2021/10/01 12:57:43;;;;;;;;;1.00;1.00;;;;;18.01;55.34;101223.69;5075789;28;45354;-77
2021/10/01 13:00:18;;;;;;;;;0.00;0.00;;;;;18.01;55.35;101215.72;5076391;27;45612;-78
2021/10/01 13:02:49;;;;;;;;;1.00;1.00;;;;;18.01;54.91;101205.94;5075778;27;45472;-76
2021/10/01 13:05:25;;;;;;;;;2.00;0.00;;;;;18.05;55.24;101212.63;5079934;27;45534;-74